Time;durP1;ratioP1;P1;durP2;ratioP2;P2;SDS_P1;SDS_P2;PMS_P1;PMS_P2;Temp;Humidity;BMP_temperature;BMP_pressure;BME280_temperature;BME280_humidity;BME280_pressure;Samples;Min_cycle;Max_cycle;Signal;HPM_P1;HPM_P2
2023/07/15 00:01:23;;;;;;;13.20;8.65;;;;;;;24.50;86.76;95367.88;5046948;28;20229;-76
2023/07/15 00:03:49;;;;;;;11.43;8.27;;;;;;;24.52;86.69;95358.50;5054596;28;20263;-76
2023/07/15 00:06:14;;;;;;;13.57;8.25;;;;;;;24.19;88.05;95364.53;5065741;28;20260;-76
2023/07/15 00:08:40;;;;;;;14.85;8.52;;;;;;;24.33;87.53;95362.88;5069920;28;20696;-76
2023/07/15 00:11:06;;;;;;;12.80;8.30;;;;;;;24.40;87.38;95368.72;5052052;28;20280;-76
2023/07/15 00:13:31;;;;;;;13.90;8.05;;;;;;;24.31;87.36;95358.88;5045522;28;20579;-76
2023/07/15 00:15:57;;;;;;;12.73;8.30;;;;;;;24.28;87.93;95370.09;5050372;28;20259;-76
2023/07/15 00:18:22;;;;;;;13.05;8.07;;;;;;;24.30;87.08;95366.09;5071259;28;20235;-76
2023/07/15 00:20:48;;;;;;;12.25;8.38;;;;;;;24.46;86.50;95364.13;5058018;28;20266;-77
2023/07/15 00:23:24;;;;;;;15.48;8.60;;;;;;;24.30;87.05;95368.75;5034806;28;20223;-76
2023/07/15 00:25:53;;;;;;;12.02;8.02;;;;;;;24.39;86.67;95368.97;5048858;28;20704;-76
2023/07/15 00:28:19;;;;;;;13.50;7.93;;;;;;;24.27;87.43;95373.84;5030769;28;20236;-76
2023/07/15 00:30:45;;;;;;;13.27;8.05;;;;;;;24.22;87.72;95365.84;5048836;28;20255;-76
2023/07/15 00:33:14;;;;;;;11.07;7.95;;;;;;;24.34;86.45;95367.13;5067568;28;20240;-76
2023/07/15 00:35:40;;;;;;;14.10;8.05;;;;;;;24.26;87.12;95369.59;5057373;28;20251;-76
2023/07/15 00:38:05;;;;;;;13.63;7.93;;;;;;;24.24;87.19;95371.72;5045957;28;20233;-76
2023/07/15 00:40:34;;;;;;;13.80;8.18;;;;;;;24.23;86.77;95376.28;5053472;28;20231;-75
2023/07/15 00:43:38;;;;;;;14.90;8.18;;;;;;;24.08;88.10;95384.34;5065812;28;20232;-76
2023/07/15 00:46:19;;;;;;;16.55;8.20;;;;;;;24.02;88.31;95380.88;5070336;28;20239;-76
2023/07/15 00:48:51;;;;;;;13.23;8.10;;;;;;;23.79;89.46;95381.44;5062781;28;20228;-76
2023/07/15 00:51:16;;;;;;;13.32;8.32;;;;;;;23.88;89.12;95379.81;5069947;28;20237;-76
2023/07/15 00:53:42;;;;;;;12.20;8.23;;;;;;;23.75;90.14;95383.06;5051801;28;20236;-76
2023/07/15 00:56:08;;;;;;;13.32;8.52;;;;;;;23.63;90.30;95377.19;5063869;28;20744;-76
2023/07/15 00:58:34;;;;;;;15.80;8.57;;;;;;;23.84;89.46;95383.31;5053826;28;20266;-76
2023/07/15 01:00:59;;;;;;;14.18;8.15;;;;;;;23.91;88.98;95384.63;5059106;28;20228;-76
2023/07/15 01:03:25;;;;;;;15.50;8.65;;;;;;;23.53;90.83;95382.53;5048859;28;20839;-76
2023/07/15 01:05:51;;;;;;;15.70;8.52;;;;;;;23.75;89.32;95391.09;5051029;28;20233;-76
2023/07/15 01:08:17;;;;;;;15.60;8.23;;;;;;;23.83;88.88;95390.53;5066099;28;20230;-76
2023/07/15 01:10:43;;;;;;;13.77;8.38;;;;;;;24.01;87.52;95389.16;5070473;28;20767;-76
2023/07/15 01:13:11;;;;;;;15.65;8.63;;;;;;;23.80;88.30;95392.94;5053646;28;20236;-76
2023/07/15 01:15:37;;;;;;;14.40;8.70;;;;;;;23.64;89.16;95394.84;5071523;28;20229;-76
2023/07/15 01:18:02;;;;;;;12.60;8.23;;;;;;;23.74;88.64;95389.47;5072978;28;20362;-76
2023/07/15 01:20:27;;;;;;;18.50;8.55;;;;;;;23.74;88.31;95391.38;5041892;28;20232;-76
2023/07/15 01:22:53;;;;;;;15.00;8.82;;;;;;;23.72;88.69;95388.13;5057325;28;20271;-77
2023/07/15 01:25:18;;;;;;;13.52;8.43;;;;;;;23.67;88.77;95377.47;5071833;28;20250;-76
2023/07/15 01:27:44;;;;;;;13.15;8.75;;;;;;;23.39;90.46;95389.50;5062518;28;20228;-76
2023/07/15 01:30:10;;;;;;;13.02;8.55;;;;;;;23.39;90.55;95386.84;5054539;28;20283;-76
2023/07/15 01:32:35;;;;;;;16.88;8.55;;;;;;;23.49;89.93;95389.50;5050177;28;20233;-76
2023/07/15 01:35:03;;;;;;;14.75;8.65;;;;;;;23.55;89.36;95395.66;5052191;28;20259;-76
2023/07/15 01:37:29;;;;;;;15.55;8.35;;;;;;;23.32;90.73;95388.94;5049764;28;20311;-76
2023/07/15 01:39:54;;;;;;;16.33;8.77;;;;;;;23.46;90.29;95390.03;5040493;28;20710;-76
2023/07/15 01:42:20;;;;;;;14.13;9.00;;;;;;;23.23;91.64;95387.88;5039567;28;20236;-76
2023/07/15 01:44:45;;;;;;;14.98;9.15;;;;;;;23.14;92.17;95400.16;5072485;28;20850;-76
2023/07/15 01:47:11;;;;;;;13.68;9.40;;;;;;;23.28;91.45;95398.56;5054543;28;20634;-76
2023/07/15 01:49:36;;;;;;;15.13;8.80;;;;;;;23.28;92.06;95393.22;5050366;28;21142;-76
2023/07/15 01:52:02;;;;;;;13.75;8.82;;;;;;;23.33;91.23;95393.22;5048983;28;20302;-76
2023/07/15 01:54:27;;;;;;;15.60;9.13;;;;;;;23.22;91.91;95391.59;5051723;28;20228;-77
2023/07/15 01:56:52;;;;;;;16.05;9.30;;;;;;;23.25;92.03;95391.09;5045651;28;20301;-76
2023/07/15 01:59:18;;;;;;;14.77;8.45;;;;;;;23.46;90.87;95392.72;5072764;28;20286;-76
2023/07/15 02:01:44;;;;;;;15.43;8.85;;;;;;;23.56;90.04;95395.38;5051941;28;20219;-76
2023/07/15 02:04:09;;;;;;;16.90;9.40;;;;;;;23.48;90.53;95392.47;5053683;28;20231;-76
2023/07/15 02:06:35;;;;;;;15.60;8.90;;;;;;;23.29;91.76;95390.28;5070945;28;20380;-75
2023/07/15 02:09:01;;;;;;;13.60;8.63;;;;;;;23.12;92.76;95387.06;5061810;28;20229;-76
2023/07/15 02:11:26;;;;;;;14.48;8.85;;;;;;;23.15;92.55;95391.06;5063670;28;20243;-76
2023/07/15 02:13:52;;;;;;;15.35;8.68;;;;;;;22.89;94.63;95405.47;5066646;28;20276;-75
2023/07/15 02:16:17;;;;;;;15.50;9.27;;;;;;;22.93;94.64;95401.22;5046871;28;20221;-76
2023/07/15 02:18:43;;;;;;;16.52;9.02;;;;;;;23.04;94.11;95406.28;5070590;28;20235;-76
2023/07/15 02:21:09;;;;;;;12.90;9.02;;;;;;;22.95;94.52;95397.19;5069243;28;20590;-76
2023/07/15 02:23:35;;;;;;;13.73;8.93;;;;;;;23.04;94.10;95400.97;5038023;28;20229;-76
2023/07/15 02:26:00;;;;;;;15.27;9.15;;;;;;;23.10;93.79;95396.41;5062300;28;20286;-76
2023/07/15 02:28:27;;;;;;;15.43;8.93;;;;;;;23.07;94.32;95394.28;5051460;28;20595;-76
2023/07/15 02:30:53;;;;;;;12.95;8.85;;;;;;;23.03;94.87;95398.53;5034228;28;20722;-75
2023/07/15 02:33:19;;;;;;;18.15;9.18;;;;;;;22.90;95.40;95396.38;5065916;28;20236;-76
2023/07/15 02:35:44;;;;;;;14.75;9.43;;;;;;;22.94;95.56;95402.78;5051035;28;20229;-76
2023/07/15 02:38:10;;;;;;;16.80;9.75;;;;;;;22.72;96.69;95397.69;5056504;28;20259;-76
2023/07/15 02:40:35;;;;;;;13.90;9.18;;;;;;;22.76;96.52;95396.88;5071899;28;20224;-76
2023/07/15 02:43:01;;;;;;;15.35;9.02;;;;;;;22.64;97.25;95404.31;5061742;28;20229;-76
2023/07/15 02:45:27;;;;;;;14.75;9.07;;;;;;;22.68;96.96;95402.75;5060565;28;20228;-76
2023/07/15 02:47:52;;;;;;;13.50;8.73;;;;;;;22.57;97.95;95405.63;5038992;28;20298;-76
2023/07/15 02:50:18;;;;;;;13.82;9.35;;;;;;;22.61;97.48;95412.88;5067172;28;20220;-76
2023/07/15 02:52:45;;;;;;;16.02;9.55;;;;;;;22.45;98.82;95408.50;5048981;28;20224;-76
2023/07/15 02:55:10;;;;;;;16.52;9.48;;;;;;;;;;5044143;28;20221;-76
2023/07/15 02:57:36;;;;;;;14.93;9.18;;;;;;;22.81;96.82;95406.75;5061546;28;20622;-76
2023/07/15 03:00:07;;;;;;;20.10;9.70;;;;;;;22.86;96.28;95408.66;5074953;28;20737;-77
2023/07/15 03:02:33;;;;;;;15.73;8.77;;;;;;;23.03;94.85;95412.69;5056046;28;20793;-76
2023/07/15 03:04:58;;;;;;;14.13;9.15;;;;;;;23.01;94.76;95412.16;5075181;28;20255;-77
2023/07/15 03:07:24;;;;;;;13.98;8.57;;;;;;;23.07;94.20;95410.31;5056579;28;20666;-76
2023/07/15 03:09:49;;;;;;;19.55;8.80;;;;;;;23.11;93.40;95411.38;5069990;28;20237;-76
2023/07/15 03:12:14;;;;;;;16.08;9.05;;;;;;;23.11;93.37;95416.72;5074035;28;20262;-76
2023/07/15 03:14:42;;;;;;;14.38;8.70;;;;;;;23.13;93.29;95415.38;5073747;28;20625;-76
2023/07/15 03:17:08;;;;;;;13.68;8.80;;;;;;;23.20;92.46;95418.59;5051550;28;20263;-76
2023/07/15 03:19:33;;;;;;;14.27;9.20;;;;;;;22.98;93.77;95417.22;5076527;28;20260;-76
2023/07/15 03:21:59;;;;;;;15.00;9.23;;;;;;;23.09;93.03;95421.53;5068152;28;20951;-76
2023/07/15 03:24:25;;;;;;;15.98;8.80;;;;;;;23.03;93.18;95412.69;5073214;28;20239;-76
2023/07/15 03:26:51;;;;;;;16.83;9.38;;;;;;;22.91;93.44;95416.66;5057929;28;20232;-76
2023/07/15 03:29:17;;;;;;;13.80;9.27;;;;;;;22.87;93.61;95418.28;5072780;28;20334;-76
2023/07/15 03:31:42;;;;;;;17.23;9.40;;;;;;;22.79;94.17;95415.06;5042348;28;20231;-76
2023/07/15 03:34:08;;;;;;;17.30;8.88;;;;;;;22.68;94.63;95416.09;5055060;28;20706;-76
2023/07/15 03:36:34;;;;;;;14.70;9.18;;;;;;;22.75;94.20;95408.66;5053254;28;20231;-76
2023/07/15 03:38:59;;;;;;;14.77;8.70;;;;;;;22.75;94.46;95413.16;5063141;28;20231;-76
2023/07/15 03:41:25;;;;;;;15.10;8.70;;;;;;;22.71;94.43;95407.53;5040653;28;20228;-76
2023/07/15 03:43:50;;;;;;;14.95;9.27;;;;;;;22.79;94.09;95415.06;5026785;28;20702;-76
2023/07/15 03:46:16;;;;;;;13.40;8.90;;;;;;;22.82;94.11;95407.56;5069553;28;20238;-76
2023/07/15 03:48:41;;;;;;;14.35;8.88;;;;;;;22.48;95.20;95404.50;5042138;28;20229;-76
2023/07/15 03:51:07;;;;;;;14.52;8.77;;;;;;;22.42;96.36;95409.03;5062501;28;20232;-76
2023/07/15 03:53:32;;;;;;;16.92;8.80;;;;;;;22.55;95.44;95413.88;5051822;28;20260;-76
2023/07/15 03:55:58;;;;;;;14.65;9.05;;;;;;;22.76;94.38;95414.75;5057874;28;20240;-76
2023/07/15 03:58:23;;;;;;;14.98;9.07;;;;;;;22.86;93.17;95412.13;5065303;28;20884;-76
2023/07/15 04:00:48;;;;;;;13.93;8.90;;;;;;;22.71;93.83;95417.44;5065210;28;20229;-76
2023/07/15 04:03:14;;;;;;;16.25;9.02;;;;;;;22.89;93.37;95418.81;5066937;28;20257;-76
2023/07/15 04:05:39;;;;;;;13.25;8.98;;;;;;;22.92;93.22;95416.41;5076687;28;20224;-76
2023/07/15 04:08:05;;;;;;;15.98;9.80;;;;;;;23.01;91.91;95414.03;5071430;28;20229;-76
2023/07/15 04:10:30;;;;;;;16.23;9.70;;;;;;;23.08;92.30;95423.38;5074548;28;20955;-76
2023/07/15 04:12:56;;;;;;;16.02;9.32;;;;;;;23.09;92.41;95426.88;5069501;28;20302;-76
2023/07/15 04:15:21;;;;;;;16.98;9.68;;;;;;;23.17;92.27;95427.13;5070475;28;20225;-76
2023/07/15 04:17:47;;;;;;;14.27;9.57;;;;;;;23.26;91.88;95428.22;5069446;28;20228;-76
2023/07/15 04:20:15;;;;;;;19.10;10.05;;;;;;;23.28;90.82;95444.78;5073800;28;20232;-76
2023/07/15 04:22:41;;;;;;;19.23;10.48;;;;;;;23.28;90.61;95447.47;5045067;28;20232;-76
2023/07/15 04:25:07;;;;;;;16.17;10.32;;;;;;;23.32;90.91;95447.72;5034645;28;20246;-76
2023/07/15 04:27:32;;;;;;;16.10;9.77;;;;;;;23.21;91.42;95454.94;5070331;28;20259;-75
2023/07/15 04:29:58;;;;;;;18.10;9.68;;;;;;;23.39;90.94;95453.63;5055403;28;20249;-76
2023/07/15 04:32:23;;;;;;;16.63;10.07;;;;;;;23.38;91.20;95454.72;5068651;28;20278;-76
2023/07/15 04:34:50;;;;;;;18.80;10.07;;;;;;;23.39;90.51;95453.63;5053392;28;20220;-76
2023/07/15 04:37:18;;;;;;;16.33;9.80;;;;;;;23.43;90.52;95457.38;5061906;28;20233;-76
2023/07/15 04:39:44;;;;;;;15.52;9.52;;;;;;;23.55;90.58;95459.81;5068818;28;20304;-76
2023/07/15 04:42:09;;;;;;;16.23;9.70;;;;;;;23.62;89.67;95455.78;5039687;28;20240;-76
2023/07/15 04:44:35;;;;;;;18.13;9.93;;;;;;;23.08;91.51;95459.97;5037907;28;20307;-76
2023/07/15 04:47:00;;;;;;;16.30;10.07;;;;;;;22.91;92.84;95459.38;5067625;28;20286;-76
2023/07/15 04:49:26;;;;;;;18.30;9.98;;;;;;;23.08;91.97;95459.97;5044175;28;20229;-76
2023/07/15 04:51:51;;;;;;;16.65;10.20;;;;;;;23.27;91.52;95456.53;5069690;28;20224;-76
2023/07/15 04:54:17;;;;;;;18.20;10.50;;;;;;;23.50;90.21;95454.47;5052173;28;20260;-76
2023/07/15 04:56:42;;;;;;;17.02;10.00;;;;;;;23.61;89.96;95453.38;5067745;28;20228;-76
2023/07/15 04:59:08;;;;;;;19.80;9.65;;;;;;;23.49;90.71;95458.19;5029192;28;21157;-76
2023/07/15 05:01:33;;;;;;;17.00;9.55;;;;;;;23.39;91.16;95458.97;5064588;28;20225;-76
2023/07/15 05:04:01;;;;;;;13.63;9.80;;;;;;;23.70;90.32;95465.13;5071336;28;20365;-76
2023/07/15 05:06:27;;;;;;;16.05;10.20;;;;;;;23.67;89.98;95458.44;5057224;28;20228;-76
2023/07/15 05:08:53;;;;;;;16.77;10.07;;;;;;;23.84;89.00;95453.63;5049555;28;20244;-76
2023/07/15 05:11:19;;;;;;;20.30;11.00;;;;;;;24.02;88.36;95463.78;5032164;28;20327;-76
2023/07/15 05:13:46;;;;;;;15.35;10.40;;;;;;;24.21;87.51;95457.88;5055662;28;20232;-76
2023/07/15 05:16:12;;;;;;;19.50;10.80;;;;;;;24.96;83.84;95454.94;5072748;28;20232;-76
2023/07/15 05:18:37;;;;;;;16.88;10.63;;;;;;;25.36;82.04;95457.38;5052831;28;20229;-76
2023/07/15 05:21:03;;;;;;;17.80;10.65;;;;;;;25.99;79.07;95468.16;5049764;28;20309;-77
2023/07/15 05:23:31;;;;;;;13.77;9.93;;;;;;;25.32;81.74;95464.38;5035266;28;20233;-75
2023/07/15 05:25:58;;;;;;;18.13;10.18;;;;;;;25.33;81.80;95459.81;5068174;28;20224;-76
2023/07/15 05:28:26;;;;;;;19.67;11.15;;;;;;;24.93;82.72;95454.72;5057581;28;20330;-76
2023/07/15 05:30:51;;;;;;;23.15;10.93;;;;;;;24.92;83.05;95450.41;5038665;28;20274;-76
2023/07/15 05:33:17;;;;;;;22.52;10.93;;;;;;;24.80;83.97;95458.78;5054515;28;20237;-76
2023/07/15 05:35:42;;;;;;;15.40;10.93;;;;;;;25.46;81.94;95455.75;5061828;28;20229;-75
2023/07/15 05:38:08;;;;;;;18.30;10.93;;;;;;;25.14;83.09;95457.00;5055987;28;20228;-75
2023/07/15 05:40:33;;;;;;;27.75;11.18;;;;;;;25.00;83.48;95452.53;5074020;28;20678;-75
2023/07/15 05:42:59;;;;;;;20.45;10.82;;;;;;;25.12;82.80;95456.47;5072882;28;20224;-75
2023/07/15 05:45:25;;;;;;;18.35;11.45;;;;;;;25.23;82.20;95455.34;5025438;28;20229;-75
2023/07/15 05:47:50;;;;;;;17.35;11.18;;;;;;;25.14;82.42;95470.41;5068027;28;20232;-75
2023/07/15 05:50:16;;;;;;;23.42;11.50;;;;;;;25.06;82.33;95470.97;5038555;28;20220;-75
2023/07/15 05:52:41;;;;;;;17.75;11.00;;;;;;;25.07;83.18;95469.09;5055701;28;20259;-76
2023/07/15 05:55:07;;;;;;;18.95;10.90;;;;;;;25.03;82.91;95476.88;5071735;28;20229;-75
2023/07/15 05:57:33;;;;;;;20.27;10.80;;;;;;;24.89;83.99;95480.41;5036618;28;20236;-75
2023/07/15 05:59:58;;;;;;;20.90;11.18;;;;;;;24.90;83.30;95477.50;5035515;28;20232;-76
2023/07/15 06:02:25;;;;;;;20.55;10.70;;;;;;;25.00;83.25;95473.97;5050806;28;20243;-75
2023/07/15 06:04:51;;;;;;;22.45;10.88;;;;;;;25.16;80.86;95475.47;5035064;28;20881;-75
2023/07/15 06:07:16;;;;;;;19.63;11.40;;;;;;;25.05;81.94;95474.75;5058607;28;20308;-76
2023/07/15 06:09:42;;;;;;;23.85;11.10;;;;;;;25.16;82.02;95475.47;5068243;28;20240;-78
2023/07/15 06:12:07;;;;;;;18.58;10.90;;;;;;;25.13;81.73;95474.13;5055183;28;20254;-81
2023/07/15 06:14:33;;;;;;;21.80;11.60;;;;;;;25.08;82.78;95463.44;5036817;28;20250;-78
2023/07/15 06:16:58;;;;;;;18.08;10.80;;;;;;;25.19;83.06;95461.53;5061203;28;20678;-76
2023/07/15 06:19:24;;;;;;;19.83;10.75;;;;;;;25.18;81.83;95466.06;5066033;28;20304;-76
2023/07/15 06:21:50;;;;;;;20.45;10.98;;;;;;;25.21;81.04;95460.16;5046892;28;20241;-76
2023/07/15 06:24:15;;;;;;;18.05;11.10;;;;;;;25.26;80.97;95457.47;5043772;28;20320;-74
2023/07/15 06:26:40;;;;;;;16.05;10.30;;;;;;;25.33;81.79;95455.28;5045900;28;20229;-76
2023/07/15 06:29:06;;;;;;;19.05;10.23;;;;;;;25.41;81.86;95451.97;5034027;28;20221;-76
2023/07/15 06:31:32;;;;;;;20.15;10.60;;;;;;;25.49;80.47;95450.63;5037925;28;20305;-76
2023/07/15 06:33:57;;;;;;;18.30;10.43;;;;;;;25.60;81.07;95460.22;5069088;28;20317;-76
2023/07/15 06:36:22;;;;;;;17.10;10.70;;;;;;;25.75;79.18;95460.06;5044133;28;20243;-76
2023/07/15 06:38:48;;;;;;;18.25;10.90;;;;;;;25.72;78.94;95457.94;5046426;28;20239;-76
2023/07/15 06:41:13;;;;;;;20.08;10.75;;;;;;;25.70;79.74;95456.63;5072077;28;20253;-77
2023/07/15 06:43:39;;;;;;;19.73;10.95;;;;;;;25.66;81.32;95458.25;5051016;28;20225;-76
2023/07/15 06:46:06;;;;;;;20.90;10.80;;;;;;;25.74;80.16;95455.00;5068814;28;20236;-76
2023/07/15 06:48:31;;;;;;;19.13;10.05;;;;;;;25.88;78.00;95456.75;5049855;28;20257;-77
2023/07/15 06:50:57;;;;;;;18.25;10.73;;;;;;;25.97;77.12;95454.25;5075055;28;20785;-76
2023/07/15 06:53:22;;;;;;;15.95;10.38;;;;;;;26.07;76.29;95457.63;5074821;28;20250;-77
2023/07/15 06:55:49;;;;;;;19.05;10.43;;;;;;;26.23;76.36;95452.94;5067836;28;20228;-76
2023/07/15 06:58:15;;;;;;;15.93;10.38;;;;;;;26.25;76.88;95441.94;5054033;28;20289;-76
2023/07/15 07:00:40;;;;;;;21.83;9.82;;;;;;;26.46;75.61;95449.44;5035326;28;20224;-76
2023/07/15 07:03:06;;;;;;;18.88;10.55;;;;;;;26.58;73.67;95454.44;5053142;28;20229;-77
2023/07/15 07:05:31;;;;;;;19.20;10.63;;;;;;;26.45;74.95;95449.75;5046369;28;20228;-76
2023/07/15 07:07:57;;;;;;;20.70;10.48;;;;;;;26.48;74.45;95457.25;5049144;28;20431;-76
2023/07/15 07:10:22;;;;;;;20.13;10.02;;;;;;;26.58;73.74;95457.91;5043249;28;20970;-76
2023/07/15 07:12:48;;;;;;;17.90;10.23;;;;;;;26.71;72.49;95457.22;5056923;28;20614;-77
2023/07/15 07:15:13;;;;;;;18.52;9.95;;;;;;;26.84;71.77;95453.09;5054555;28;20244;-77
2023/07/15 07:17:39;;;;;;;17.25;9.77;;;;;;;26.88;72.21;95461.34;5055179;28;20295;-77
2023/07/15 07:20:05;;;;;;;17.35;9.57;;;;;;;26.92;71.07;95459.66;5052442;28;20265;-76
2023/07/15 07:22:31;;;;;;;18.15;9.88;;;;;;;26.97;71.66;95462.28;5036013;28;20228;-77
2023/07/15 07:24:57;;;;;;;21.90;10.85;;;;;;;27.02;71.71;95454.16;5052739;28;20254;-77
2023/07/15 07:27:23;;;;;;;20.25;11.23;;;;;;;26.92;71.20;95454.28;5057009;28;20224;-77
2023/07/15 07:29:48;;;;;;;17.05;10.50;;;;;;;26.92;71.83;95448.94;5069818;28;21155;-76
2023/07/15 07:32:14;;;;;;;17.23;10.43;;;;;;;27.03;71.69;95455.78;5053371;28;20236;-77
2023/07/15 07:34:39;;;;;;;18.23;10.13;;;;;;;27.23;70.67;95450.09;5059618;28;20236;-76
2023/07/15 07:37:05;;;;;;;15.93;10.00;;;;;;;27.27;70.71;95445.78;5072305;28;20259;-76
2023/07/15 07:39:30;;;;;;;16.45;10.48;;;;;;;27.26;71.83;95447.66;5071930;28;20228;-77
2023/07/15 07:41:56;;;;;;;19.25;10.38;;;;;;;27.41;70.37;95451.22;5070913;28;20224;-77
2023/07/15 07:44:22;;;;;;;16.98;10.65;;;;;;;27.53;68.87;95452.41;5050681;28;20247;-76
2023/07/15 07:46:47;;;;;;;18.92;11.13;;;;;;;27.56;69.24;95442.94;5057817;28;20236;-76
2023/07/15 07:49:13;;;;;;;19.08;10.63;;;;;;;27.43;70.38;95449.84;5068235;28;20239;-76
2023/07/15 07:51:38;;;;;;;19.23;10.57;;;;;;;27.46;70.21;95445.78;5072192;28;20232;-76
2023/07/15 07:54:04;;;;;;;17.73;10.65;;;;;;;27.57;70.24;95453.41;5070392;28;20225;-75
2023/07/15 07:56:29;;;;;;;18.40;11.00;;;;;;;27.72;69.63;95444.28;5051269;28;20229;-76
2023/07/15 07:58:57;;;;;;;16.73;10.43;;;;;;;27.86;68.16;95445.13;5087948;28;20236;-77
2023/07/15 08:01:23;;;;;;;18.48;11.18;;;;;;;27.81;69.64;95437.94;5073678;28;20693;-77
2023/07/15 08:03:49;;;;;;;20.00;10.70;;;;;;;27.82;68.39;95436.06;5067065;28;20766;-76
2023/07/15 08:06:14;;;;;;;20.60;10.60;;;;;;;27.84;68.45;95442.75;5056441;28;20232;-76
2023/07/15 08:08:40;;;;;;;20.38;10.52;;;;;;;27.86;68.70;95447.81;5074347;28;20337;-76
2023/07/15 08:11:06;;;;;;;18.83;11.05;;;;;;;27.86;69.83;95448.63;5067619;28;20634;-76
2023/07/15 08:13:31;;;;;;;20.13;10.60;;;;;;;27.95;68.76;95444.16;5060442;28;20322;-77
2023/07/15 08:15:57;;;;;;;18.48;10.52;;;;;;;28.07;67.10;95451.78;5044177;28;20237;-76
2023/07/15 08:18:23;;;;;;;17.10;9.73;;;;;;;28.06;68.76;95447.50;5048833;28;20315;-76
2023/07/15 08:20:48;;;;;;;17.23;10.50;;;;;;;28.31;67.30;95449.72;5068770;28;20258;-76
2023/07/15 08:23:14;;;;;;;20.65;9.00;;;;;;;28.37;65.12;95448.56;5042215;28;20232;-77
2023/07/15 08:25:39;;;;;;;16.58;9.40;;;;;;;28.60;63.69;95446.78;5040871;28;20216;-76
2023/07/15 08:28:05;;;;;;;15.13;9.32;;;;;;;28.63;66.27;95447.00;5058131;28;20224;-76
2023/07/15 08:30:30;;;;;;;18.10;9.20;;;;;;;28.66;65.37;95442.88;5047655;28;20225;-77
2023/07/15 08:32:56;;;;;;;14.55;8.57;;;;;;;28.72;64.09;95443.59;5047735;28;20235;-76
2023/07/15 08:35:21;;;;;;;17.27;9.10;;;;;;;28.79;63.96;95450.16;5070920;28;20238;-77
2023/07/15 08:37:47;;;;;;;13.88;9.52;;;;;;;28.86;63.49;95447.88;5072452;28;20617;-76
2023/07/15 08:40:13;;;;;;;16.42;9.45;;;;;;;28.94;63.02;95452.56;5040921;28;20268;-76
2023/07/15 08:42:39;;;;;;;18.63;9.95;;;;;;;28.93;64.10;95450.94;5060269;28;20293;-76
2023/07/15 08:45:05;;;;;;;16.05;9.60;;;;;;;28.93;63.73;95450.94;5030175;28;20233;-76
2023/07/15 08:47:30;;;;;;;17.70;9.93;;;;;;;29.06;62.49;95450.16;5051177;28;20228;-77
2023/07/15 08:49:56;;;;;;;16.50;10.00;;;;;;;29.07;63.87;95450.91;5051097;28;20255;-76
2023/07/15 08:52:22;;;;;;;15.75;10.75;;;;;;;28.95;64.26;95440.66;5042166;28;20324;-76
2023/07/15 08:54:52;;;;;;;17.33;9.73;;;;;;;29.04;63.41;95436.13;5072407;28;20277;-76
2023/07/15 08:57:18;;;;;;;18.65;10.18;;;;;;;29.07;63.00;95432.84;5055755;28;20327;-76
2023/07/15 08:59:48;;;;;;;19.38;10.70;;;;;;;29.23;62.98;95439.53;5049004;28;20635;-76
2023/07/15 09:02:13;;;;;;;19.20;10.73;;;;;;;29.32;63.18;95440.41;5029514;28;20236;-76
2023/07/15 09:04:39;;;;;;;19.23;10.90;;;;;;;29.38;63.04;95434.91;5033540;28;20320;-77
2023/07/15 09:07:05;;;;;;;18.00;10.50;;;;;;;29.52;62.55;95438.34;5053579;28;20235;-76
2023/07/15 09:09:34;;;;;;;18.20;10.30;;;;;;;29.63;62.56;95437.00;5049438;28;20264;-76
2023/07/15 09:12:04;;;;;;;18.85;10.75;;;;;;;29.69;61.29;95436.56;5055813;28;20238;-77
2023/07/15 09:14:29;;;;;;;19.02;10.63;;;;;;;29.75;61.75;95434.53;5072535;28;20669;-76
2023/07/15 09:16:57;;;;;;;18.38;10.82;;;;;;;29.58;61.72;95429.81;5049126;28;20313;-76
2023/07/15 09:19:24;;;;;;;20.05;11.23;;;;;;;29.68;61.43;95436.88;5065045;28;20225;-76
2023/07/15 09:21:53;;;;;;;17.05;10.45;;;;;;;29.86;61.06;95438.59;5055627;28;21084;-76
2023/07/15 09:24:19;;;;;;;16.48;10.88;;;;;;;29.87;59.39;95437.53;5072251;28;20666;-77
2023/07/15 09:26:51;;;;;;;19.80;11.45;;;;;;;29.85;60.91;95428.94;5039034;28;20308;-77
2023/07/15 09:29:19;;;;;;;19.20;11.20;;;;;;;30.06;60.12;95431.91;5053161;28;20251;-76
2023/07/15 09:31:45;;;;;;;21.38;11.15;;;;;;;30.10;60.87;95433.66;5060113;28;20228;-76
2023/07/15 09:34:10;;;;;;;22.38;11.05;;;;;;;30.06;60.21;95430.00;5050544;28;20254;-76
2023/07/15 09:36:36;;;;;;;20.15;11.25;;;;;;;30.00;60.23;95429.34;5048088;28;20224;-77
2023/07/15 09:39:14;;;;;;;20.05;11.50;;;;;;;30.16;60.16;95428.94;5071145;28;20224;-77
2023/07/15 09:41:40;;;;;;;18.80;10.52;;;;;;;30.13;61.24;95419.56;5027295;28;20237;-76
2023/07/15 09:44:06;;;;;;;17.83;11.20;;;;;;;30.18;59.95;95422.13;5022817;28;20313;-76
2023/07/15 09:46:31;;;;;;;20.45;11.50;;;;;;;30.36;60.91;95418.41;5055626;28;20240;-76
2023/07/15 09:48:57;;;;;;;17.67;11.43;;;;;;;30.45;59.95;95410.34;5056551;28;20254;-77
2023/07/15 09:51:22;;;;;;;19.23;11.50;;;;;;;30.52;59.29;95419.59;5049378;28;20697;-77
2023/07/15 09:53:49;;;;;;;20.33;11.93;;;;;;;30.63;57.84;95409.28;5061941;28;20248;-77
2023/07/15 09:56:35;;;;;;;17.40;11.55;;;;;;;30.57;57.89;95414.03;5066515;28;20289;-76
2023/07/15 09:59:21;;;;;;;20.48;11.77;;;;;;;30.53;59.72;95415.78;5076622;28;20310;-77
2023/07/15 10:02:03;;;;;;;20.55;11.75;;;;;;;30.66;58.92;95411.38;5065879;28;20238;-76
2023/07/15 10:04:33;;;;;;;19.98;11.75;;;;;;;30.79;60.07;95405.03;5056202;28;20232;-77
2023/07/15 10:07:00;;;;;;;20.25;12.20;;;;;;;30.87;59.49;95406.16;5053032;28;20228;-77
2023/07/15 10:09:25;;;;;;;20.08;11.50;;;;;;;31.02;57.89;95414.66;5059410;28;20320;-77
2023/07/15 10:11:53;;;;;;;21.98;11.15;;;;;;;31.13;57.14;95409.72;5070765;28;20217;-77
2023/07/15 10:14:20;;;;;;;18.13;10.82;;;;;;;31.15;56.43;95415.63;5045695;28;20221;-76
2023/07/15 10:16:45;;;;;;;17.52;10.80;;;;;;;31.15;57.42;95402.09;5051324;28;20714;-76
2023/07/15 10:19:47;;;;;;;20.52;11.30;;;;;;;31.16;56.81;95409.09;5054719;28;20240;-77
2023/07/15 10:22:12;;;;;;;17.25;11.00;;;;;;;31.37;55.55;95407.38;5050795;28;20837;-77
2023/07/15 10:24:42;;;;;;;16.67;10.43;;;;;;;31.33;56.57;95406.41;5031074;28;20316;-77
2023/07/15 10:27:10;;;;;;;15.95;10.50;;;;;;;31.37;57.70;95403.84;5039249;28;20831;-77
2023/07/15 10:29:40;;;;;;;17.80;10.90;;;;;;;31.23;55.52;95401.31;5051146;28;20232;-77
2023/07/15 10:32:12;;;;;;;20.27;11.18;;;;;;;31.36;56.77;95400.34;5071294;28;20709;-77
2023/07/15 10:34:42;;;;;;;18.88;10.93;;;;;;;31.37;56.64;95399.25;5073325;28;20235;-76
2023/07/15 10:37:09;;;;;;;18.90;11.73;;;;;;;31.49;56.20;95399.44;5050363;28;20225;-78
2023/07/15 10:39:35;;;;;;;29.63;12.07;;;;;;;31.73;56.27;95391.59;5050985;28;20236;-77
2023/07/15 10:42:15;;;;;;;17.75;10.73;;;;;;;31.80;54.30;95407.34;5063154;28;20650;-75
2023/07/15 10:44:45;;;;;;;18.23;10.68;;;;;;;31.76;55.35;95396.38;5063340;28;20955;-76
2023/07/15 10:47:10;;;;;;;19.05;10.80;;;;;;;31.78;56.19;95399.56;5040652;28;20288;-76
2023/07/15 10:49:36;;;;;;;24.27;10.50;;;;;;;31.81;54.35;95392.72;5047557;28;20236;-77
2023/07/15 10:52:05;;;;;;;19.55;10.60;;;;;;;31.93;54.33;95388.19;5063457;28;20233;-77
2023/07/15 10:54:32;;;;;;;18.98;11.20;;;;;;;31.90;54.34;95393.47;5066039;28;20221;-78
2023/07/15 10:57:03;;;;;;;23.35;11.13;;;;;;;31.87;53.87;95394.13;5036043;28;20233;-78
2023/07/15 10:59:36;;;;;;;21.40;11.02;;;;;;;31.74;54.57;95390.47;5029222;28;20714;-77
2023/07/15 11:02:01;;;;;;;18.48;10.60;;;;;;;31.75;55.04;95389.38;5048504;28;20263;-76
2023/07/15 11:04:27;;;;;;;19.08;10.63;;;;;;;31.84;54.04;95384.72;5078227;28;20220;-76
2023/07/15 11:06:52;;;;;;;17.20;10.85;;;;;;;31.93;55.31;95374.66;5041795;28;20343;-77
2023/07/15 11:09:19;;;;;;;20.52;10.70;;;;;;;31.98;52.72;95381.84;5055044;28;20228;-76
2023/07/15 11:11:45;;;;;;;22.90;11.43;;;;;;;32.15;53.71;95383.72;5058531;28;20628;-76
2023/07/15 11:14:26;;;;;;;21.20;10.80;;;;;;;31.87;53.56;95380.56;5041088;28;20224;-75
2023/07/15 11:16:53;;;;;;;19.08;10.70;;;;;;;31.96;55.16;95371.31;5069490;28;20237;-76
2023/07/15 11:19:18;;;;;;;21.30;11.30;;;;;;;32.11;54.94;95375.44;5035334;28;20286;-76